createdAt,value
2023-04-18T00:00:15.091Z,41.63
2023-04-18T00:01:15.101Z,41.53
2023-04-18T00:02:15.138Z,41.53
2023-04-18T00:03:15.380Z,41.53
2023-04-18T00:04:15.462Z,41.53
2023-04-18T00:05:15.087Z,41.53
2023-04-18T00:06:15.030Z,41.53
2023-04-18T00:07:15.019Z,41.43
2023-04-18T00:08:15.021Z,41.43
2023-04-18T00:09:15.151Z,41.43
2023-04-18T00:10:14.985Z,41.43
2023-04-18T00:11:14.988Z,41.33
2023-04-18T00:12:14.960Z,41.33
2023-04-18T00:13:14.947Z,41.33
2023-04-18T00:14:15.341Z,41.33
2023-04-18T00:15:15.090Z,41.33
2023-04-18T00:16:15.000Z,41.33
2023-04-18T00:17:14.944Z,41.23
2023-04-18T00:18:14.901Z,41.33
2023-04-18T00:19:14.882Z,41.23
2023-04-18T00:20:14.886Z,41.23
2023-04-18T00:21:14.917Z,41.23
2023-04-18T00:22:14.853Z,41.23
2023-04-18T00:23:14.847Z,41.23
2023-04-18T00:24:15.097Z,41.23
2023-04-18T00:25:14.823Z,41.13
2023-04-18T00:26:14.815Z,41.13
2023-04-18T00:27:14.937Z,41.13
2023-04-18T00:28:14.793Z,41.13
2023-04-18T00:29:14.777Z,41.13
2023-04-18T00:30:14.775Z,41.13
2023-04-18T00:31:14.883Z,41.13
2023-04-18T00:32:14.756Z,41.03
2023-04-18T00:33:15.023Z,41.03
2023-04-18T00:34:14.993Z,41.03
2023-04-18T00:35:14.817Z,41.03
2023-04-18T00:36:14.728Z,41.03
2023-04-18T00:37:14.700Z,41.03
2023-04-18T00:38:14.697Z,41.03
2023-04-18T00:39:14.714Z,40.93
2023-04-18T00:40:14.674Z,40.93
2023-04-18T00:41:14.653Z,40.93
2023-04-18T00:42:14.650Z,40.95
2023-04-18T00:43:14.634Z,40.95
2023-04-18T00:44:14.826Z,40.95
2023-04-18T00:45:14.662Z,40.95
2023-04-18T00:46:14.652Z,40.85
2023-04-18T00:47:14.596Z,40.85
2023-04-18T00:48:14.592Z,40.85
2023-04-18T00:49:14.566Z,40.85
2023-04-18T00:50:14.571Z,40.85
2023-04-18T00:51:14.688Z,40.85
2023-04-18T00:52:14.541Z,40.85
2023-04-18T00:53:14.533Z,40.85
2023-04-18T00:54:14.701Z,40.75
2023-04-18T00:55:14.496Z,40.75
2023-04-18T00:56:14.494Z,40.75
2023-04-18T00:57:14.613Z,40.75
2023-04-18T00:58:14.513Z,40.75
2023-04-18T00:59:21.865Z,40.75
2023-04-18T01:00:14.460Z,40.75
2023-04-18T01:01:14.453Z,40.75
2023-04-18T01:02:14.453Z,40.75
2023-04-18T01:03:14.803Z,40.75
2023-04-18T01:04:14.765Z,40.65
2023-04-18T01:05:14.394Z,40.65
2023-04-18T01:06:14.403Z,40.75
2023-04-18T01:07:14.381Z,40.65
2023-04-18T01:08:14.368Z,40.65
2023-04-18T01:09:14.396Z,40.75
2023-04-18T01:10:14.357Z,40.75
2023-04-18T01:11:14.336Z,40.75
2023-04-18T01:12:14.333Z,40.75
2023-04-18T01:13:14.320Z,40.75
2023-04-18T01:14:14.537Z,40.85
2023-04-18T01:15:14.419Z,40.85
2023-04-18T01:16:14.322Z,40.95
2023-04-18T01:17:14.275Z,40.95
2023-04-18T01:18:14.265Z,41.05
2023-04-18T01:19:14.241Z,40.95
2023-04-18T01:20:14.245Z,41.05
2023-04-18T01:21:14.361Z,41.05
2023-04-18T01:22:14.222Z,41.05
2023-04-18T01:23:14.204Z,41.05
2023-04-18T01:24:14.402Z,41.05
2023-04-18T01:25:14.195Z,41.05
2023-04-18T01:26:14.177Z,41.05
2023-04-18T01:27:14.291Z,41.05
2023-04-18T01:28:14.164Z,41.05
2023-04-18T01:29:14.148Z,41.05
2023-04-18T01:30:14.180Z,41.05
2023-04-18T01:31:14.171Z,41.05
2023-04-18T01:32:14.125Z,41.05
2023-04-18T01:33:14.344Z,41.05
2023-04-18T01:34:14.342Z,41.05
2023-04-18T01:35:14.077Z,41.05
2023-04-18T01:36:14.078Z,41.05
2023-04-18T01:37:14.060Z,41.05
2023-04-18T01:38:14.067Z,41.05
2023-04-18T01:39:14.167Z,41.05
2023-04-18T01:40:14.034Z,41.05
2023-04-18T01:41:14.022Z,40.95
2023-04-18T01:42:14.006Z,41.05
2023-04-18T01:43:13.991Z,41.05
2023-04-18T01:44:14.314Z,40.95
2023-04-18T01:45:13.998Z,40.95
2023-04-18T01:46:13.975Z,41.05
2023-04-18T01:47:13.950Z,40.95
2023-04-18T01:48:13.947Z,41.05
2023-04-18T01:49:13.929Z,40.95
2023-04-18T01:50:13.932Z,40.95
2023-04-18T01:51:14.056Z,40.95
2023-04-18T01:52:13.903Z,40.95
2023-04-18T01:53:13.914Z,40.95
2023-04-18T01:54:13.995Z,40.95
2023-04-18T01:55:13.889Z,40.95
2023-04-18T01:56:13.865Z,40.95
2023-04-18T01:57:13.975Z,40.95
2023-04-18T01:58:13.840Z,40.85
2023-04-18T01:59:21.890Z,40.95
2023-04-18T02:00:13.836Z,40.95
2023-04-18T02:01:13.816Z,40.95
2023-04-18T02:02:13.934Z,40.85
2023-04-18T02:03:14.068Z,40.95
2023-04-18T02:04:14.011Z,40.95
2023-04-18T02:05:13.757Z,40.95
2023-04-18T02:06:13.752Z,40.85
2023-04-18T02:07:13.752Z,40.95
2023-04-18T02:08:13.740Z,40.95
2023-04-18T02:09:13.845Z,40.95
2023-04-18T02:10:13.711Z,40.85
2023-04-18T02:11:13.731Z,40.95
2023-04-18T02:12:13.696Z,40.85
2023-04-18T02:13:13.678Z,40.85
2023-04-18T02:14:13.777Z,40.85
2023-04-18T02:15:13.718Z,40.85
2023-04-18T02:16:13.720Z,40.85
2023-04-18T02:17:13.634Z,40.85
2023-04-18T02:18:13.658Z,40.85
2023-04-18T02:19:13.643Z,40.85
2023-04-18T02:20:13.621Z,40.85
2023-04-18T02:21:13.757Z,40.85
2023-04-18T02:22:13.601Z,40.85
2023-04-18T02:23:13.576Z,40.85
2023-04-18T02:24:13.771Z,40.85
2023-04-18T02:25:13.548Z,40.85
2023-04-18T02:26:13.561Z,40.75
2023-04-18T02:27:13.686Z,40.75
2023-04-18T02:28:13.533Z,40.75
2023-04-18T02:29:13.540Z,40.75
2023-04-18T02:30:13.504Z,40.75
2023-04-18T02:31:13.495Z,40.65
2023-04-18T02:32:13.485Z,40.75
2023-04-18T02:33:13.494Z,40.65
2023-04-18T02:34:13.699Z,40.75
2023-04-18T02:35:13.458Z,40.75
2023-04-18T02:36:13.439Z,40.75
2023-04-18T02:37:13.426Z,40.75
2023-04-18T02:38:13.412Z,40.65
2023-04-18T02:39:13.655Z,40.75
2023-04-18T02:40:13.391Z,40.65
2023-04-18T02:41:13.381Z,40.65
2023-04-18T02:42:13.388Z,40.65
2023-04-18T02:43:13.369Z,40.55
2023-04-18T02:44:13.574Z,40.65
2023-04-18T02:45:13.428Z,40.65
2023-04-18T02:46:13.395Z,40.55
2023-04-18T02:47:13.317Z,40.55
2023-04-18T02:48:13.346Z,40.55
2023-04-18T02:49:13.299Z,40.55
2023-04-18T02:50:13.297Z,40.55
2023-04-18T02:51:13.310Z,40.55
2023-04-18T02:52:13.278Z,40.55
2023-04-18T02:53:13.254Z,40.65
2023-04-18T02:54:13.554Z,40.55
2023-04-18T02:55:13.262Z,40.55
2023-04-18T02:56:13.237Z,40.55
2023-04-18T02:57:13.349Z,40.55
2023-04-18T02:58:13.206Z,40.55
2023-04-18T02:59:20.412Z,40.45
2023-04-18T03:00:13.174Z,40.55
2023-04-18T03:01:13.216Z,40.55
2023-04-18T03:02:13.202Z,40.55
2023-04-18T03:03:13.236Z,40.45
2023-04-18T03:04:13.523Z,40.55
2023-04-18T03:05:13.243Z,40.45
2023-04-18T03:06:13.124Z,40.45
2023-04-18T03:07:13.109Z,40.65
2023-04-18T03:08:13.107Z,40.55
2023-04-18T03:09:13.217Z,40.55
2023-04-18T03:10:13.084Z,40.55
2023-04-18T03:11:13.074Z,40.45
2023-04-18T03:12:13.059Z,40.45
2023-04-18T03:13:13.061Z,40.45
2023-04-18T03:14:13.246Z,40.45
2023-04-18T03:15:13.167Z,40.45
2023-04-18T03:16:13.036Z,40.35
2023-04-18T03:17:12.992Z,40.45
2023-04-18T03:18:12.994Z,40.45
2023-04-18T03:19:12.976Z,40.35
2023-04-18T03:20:12.968Z,40.35
2023-04-18T03:21:12.999Z,40.45
2023-04-18T03:22:12.955Z,40.45
2023-04-18T03:23:12.932Z,40.45
2023-04-18T03:24:13.182Z,40.45
2023-04-18T03:25:12.921Z,40.45
2023-04-18T03:26:12.855Z,40.45
2023-04-18T03:27:13.065Z,40.45
2023-04-18T03:28:12.912Z,40.45
2023-04-18T03:29:12.880Z,40.45
2023-04-18T03:30:12.818Z,40.45
2023-04-18T03:31:12.811Z,40.45
2023-04-18T03:32:12.785Z,40.45
2023-04-18T03:33:12.953Z,40.35
2023-04-18T03:34:13.129Z,40.55
2023-04-18T03:35:12.808Z,40.55
2023-04-18T03:36:12.761Z,40.35
2023-04-18T03:37:12.744Z,40.55
2023-04-18T03:38:13.265Z,40.55
2023-04-18T03:39:12.754Z,40.35
2023-04-18T03:40:12.759Z,40.35
2023-04-18T03:41:12.739Z,40.35
2023-04-18T03:42:12.695Z,40.35
2023-04-18T03:43:12.664Z,40.35
2023-04-18T03:44:12.859Z,40.35
2023-04-18T03:45:12.913Z,40.35
2023-04-18T03:46:12.687Z,40.47
2023-04-18T03:47:12.617Z,40.55
2023-04-18T03:48:12.622Z,40.55
2023-04-18T03:49:12.608Z,40.55
2023-04-18T03:50:12.642Z,40.57
2023-04-18T03:51:12.753Z,40.45
2023-04-18T03:52:12.579Z,40.47
2023-04-18T03:53:12.562Z,40.57
2023-04-18T03:54:12.718Z,40.57
2023-04-18T03:55:12.534Z,40.45
2023-04-18T03:56:12.536Z,40.57
2023-04-18T03:57:12.652Z,40.57
2023-04-18T03:58:12.511Z,40.77
2023-04-18T03:59:20.951Z,40.77
2023-04-18T04:00:12.481Z,40.77
2023-04-18T04:01:12.482Z,40.65
2023-04-18T04:02:12.538Z,40.57
2023-04-18T04:03:12.644Z,40.55
2023-04-18T04:04:12.756Z,40.57
2023-04-18T04:05:12.445Z,40.55
2023-04-18T04:06:12.427Z,40.67
2023-04-18T04:07:12.410Z,40.65
2023-04-18T04:08:12.417Z,40.67
2023-04-18T04:09:12.456Z,40.67
2023-04-18T04:10:12.397Z,40.77
2023-04-18T04:11:12.377Z,40.77
2023-04-18T04:12:12.375Z,40.97
2023-04-18T04:13:12.355Z,40.95
2023-04-18T04:14:12.566Z,40.97
2023-04-18T04:15:12.381Z,40.97
2023-04-18T04:16:12.419Z,40.87
2023-04-18T04:17:12.308Z,40.95
2023-04-18T04:18:12.303Z,40.85
2023-04-18T04:19:12.411Z,40.75
2023-04-18T04:20:12.284Z,40.77
2023-04-18T04:21:12.409Z,40.75
2023-04-18T04:22:12.256Z,40.75
2023-04-18T04:23:12.253Z,40.75
2023-04-18T04:24:12.490Z,40.67
2023-04-18T04:25:12.229Z,40.67
2023-04-18T04:26:12.216Z,40.67
2023-04-18T04:27:12.248Z,40.57
2023-04-18T04:28:12.196Z,40.57
2023-04-18T04:29:12.190Z,40.57
2023-04-18T04:30:13.545Z,40.57
2023-04-18T04:31:12.168Z,40.47
2023-04-18T04:32:12.199Z,40.47
2023-04-18T04:33:12.183Z,40.06
2023-04-18T04:34:12.286Z,39.66
2023-04-18T04:35:12.137Z,39.86
2023-04-18T04:36:12.119Z,40.17
2023-04-18T04:37:12.104Z,40.26
2023-04-18T04:38:12.087Z,40.37
2023-04-18T04:39:12.228Z,40.37
2023-04-18T04:40:12.060Z,40.26
2023-04-18T04:41:12.070Z,40.26
2023-04-18T04:42:12.061Z,40.26
2023-04-18T04:43:12.034Z,40.26
2023-04-18T04:44:12.317Z,40.26
2023-04-18T04:45:12.085Z,40.26
2023-04-18T04:46:12.012Z,40.17
2023-04-18T04:47:11.993Z,40.17
2023-04-18T04:48:11.970Z,40.17
2023-04-18T04:49:11.984Z,40.17
2023-04-18T04:50:11.950Z,40.17
2023-04-18T04:51:12.104Z,40.06
2023-04-18T04:52:11.928Z,40.05
2023-04-18T04:53:11.934Z,40.05
2023-04-18T04:54:12.258Z,40.05
2023-04-18T04:55:11.918Z,40.05
2023-04-18T04:56:11.892Z,40.06
2023-04-18T04:57:12.058Z,40.05
2023-04-18T04:58:11.865Z,39.95
2023-04-18T04:59:18.963Z,39.95
2023-04-18T05:00:11.844Z,39.95
2023-04-18T05:01:11.917Z,39.95
2023-04-18T05:02:11.873Z,39.84
2023-04-18T05:03:12.029Z,39.84
2023-04-18T05:04:12.147Z,39.84
2023-04-18T05:05:11.803Z,39.84
2023-04-18T05:06:11.796Z,39.84
2023-04-18T05:07:11.775Z,39.84
2023-04-18T05:08:11.759Z,39.84
2023-04-18T05:09:11.888Z,39.84
2023-04-18T05:10:11.735Z,39.84
2023-04-18T05:11:11.736Z,39.84
2023-04-18T05:12:11.727Z,39.84
2023-04-18T05:13:11.713Z,39.75
2023-04-18T05:14:11.896Z,39.75
2023-04-18T05:15:11.813Z,39.75
2023-04-18T05:16:11.701Z,39.64
2023-04-18T05:17:11.664Z,39.75
2023-04-18T05:18:11.653Z,39.75
2023-04-18T05:19:11.650Z,39.75
2023-04-18T05:20:11.641Z,39.84
2023-04-18T05:21:11.774Z,39.84
2023-04-18T05:22:11.627Z,39.75
2023-04-18T05:23:11.609Z,39.95
2023-04-18T05:24:11.689Z,40.05
2023-04-18T05:25:11.601Z,39.95
2023-04-18T05:26:11.569Z,40.15
2023-04-18T05:27:11.751Z,40.25
2023-04-18T05:28:11.554Z,40.25
2023-04-18T05:29:11.592Z,40.25
2023-04-18T05:30:11.536Z,40.25
2023-04-18T05:31:11.559Z,40.25
2023-04-18T05:32:11.514Z,40.35
2023-04-18T05:33:11.528Z,40.45
2023-04-18T05:34:11.807Z,40.45
2023-04-18T05:35:11.490Z,40.55
2023-04-18T05:36:11.470Z,40.43
2023-04-18T05:37:11.461Z,40.53
2023-04-18T05:38:11.458Z,40.43
2023-04-18T05:39:11.608Z,40.83
2023-04-18T05:40:11.426Z,40.93
2023-04-18T05:41:11.428Z,40.73
2023-04-18T05:42:11.407Z,40.63
2023-04-18T05:43:11.407Z,40.63
2023-04-18T05:44:11.377Z,40.63
2023-04-18T05:45:11.407Z,40.63
2023-04-18T05:46:11.396Z,40.63
2023-04-18T05:47:11.350Z,40.63
2023-04-18T05:48:11.411Z,40.63
2023-04-18T05:49:11.344Z,40.53
2023-04-18T05:50:11.358Z,40.53
2023-04-18T05:51:11.787Z,40.53
2023-04-18T05:52:11.301Z,40.63
2023-04-18T05:53:11.294Z,40.53
2023-04-18T05:54:11.350Z,40.63
2023-04-18T05:55:11.282Z,40.73
2023-04-18T05:56:11.250Z,40.63
2023-04-18T05:57:11.382Z,40.53
2023-04-18T05:58:11.242Z,40.63
2023-04-18T06:00:34.283Z,40.53
2023-04-18T06:01:35.253Z,40.43
2023-04-18T06:02:35.432Z,40.43
2023-04-18T06:03:35.567Z,40.43
2023-04-18T06:04:35.430Z,40.43
2023-04-18T06:05:35.340Z,38.12
2023-04-18T06:06:35.204Z,34.61
2023-04-18T06:07:35.193Z,35.01
2023-04-18T06:08:35.331Z,35.91
2023-04-18T06:09:35.169Z,37.42
2023-04-18T06:10:36.421Z,38.53
2023-04-18T06:11:35.150Z,39.03
2023-04-18T06:12:35.149Z,39.32
2023-04-18T06:13:35.129Z,39.42
2023-04-18T06:14:35.270Z,39.42
2023-04-18T06:15:35.111Z,39.53
2023-04-18T06:16:35.204Z,39.53
2023-04-18T06:17:35.132Z,39.53
2023-04-18T06:18:35.083Z,39.53
2023-04-18T06:19:35.073Z,39.53
2023-04-18T06:20:35.241Z,39.53
2023-04-18T06:21:35.081Z,39.53
2023-04-18T06:22:35.040Z,39.53
2023-04-18T06:23:35.058Z,39.53
2023-04-18T06:24:35.026Z,39.53
2023-04-18T06:25:35.009Z,39.42
2023-04-18T06:26:35.147Z,39.42
2023-04-18T06:27:34.983Z,39.42
2023-04-18T06:28:34.980Z,39.42
2023-04-18T06:29:36.170Z,39.42
2023-04-18T06:30:34.971Z,39.42
2023-04-18T06:31:34.961Z,39.32
2023-04-18T06:32:35.025Z,39.32
2023-04-18T06:33:34.919Z,39.32
2023-04-18T06:34:34.917Z,39.32
2023-04-18T06:35:34.908Z,39.32
2023-04-18T06:36:34.898Z,39.32
2023-04-18T06:37:34.886Z,39.21
2023-04-18T06:38:35.033Z,39.21
2023-04-18T06:39:34.873Z,39.21
2023-04-18T06:40:34.861Z,39.21
2023-04-18T06:41:34.843Z,39.21
2023-04-18T06:42:34.839Z,39.21
2023-04-18T06:43:34.829Z,39.21
2023-04-18T06:44:34.861Z,39.11
2023-04-18T06:45:34.842Z,39.11
2023-04-18T06:46:34.792Z,39.11
2023-04-18T06:47:34.790Z,39.11
2023-04-18T06:48:34.772Z,38.99
2023-04-18T06:49:34.756Z,38.99
2023-04-18T06:50:34.903Z,38.89
2023-04-18T06:51:34.737Z,38.89
2023-04-18T06:52:34.731Z,38.79
2023-04-18T06:53:34.724Z,38.79
2023-04-18T06:54:34.717Z,38.68
2023-04-18T06:55:34.708Z,38.68
2023-04-18T06:56:36.499Z,38.67
2023-04-18T06:57:34.698Z,38.67
2023-04-18T06:58:34.677Z,38.67
2023-04-18T06:59:42.157Z,38.67
2023-04-18T07:00:34.648Z,38.68
2023-04-18T07:01:34.744Z,38.68
2023-04-18T07:02:34.905Z,38.68
2023-04-18T07:03:34.684Z,38.79
2023-04-18T07:04:34.635Z,38.79
2023-04-18T07:05:34.600Z,38.79
2023-04-18T07:06:34.590Z,38.89
2023-04-18T07:07:34.584Z,38.89
2023-04-18T07:08:34.725Z,38.89
2023-04-18T07:09:34.554Z,38.89
2023-04-18T07:10:34.552Z,38.89
2023-04-18T07:11:34.531Z,38.89
2023-04-18T07:12:34.524Z,38.89
2023-04-18T07:13:34.547Z,38.99
2023-04-18T07:14:34.664Z,38.99
2023-04-18T07:15:34.484Z,38.99
2023-04-18T07:16:34.623Z,38.99
2023-04-18T07:17:34.521Z,38.99
2023-04-18T07:18:38.262Z,38.99
2023-04-18T07:19:34.438Z,38.99
2023-04-18T07:20:34.588Z,38.99
2023-04-18T07:21:34.432Z,38.99
2023-04-18T07:22:34.415Z,38.99
2023-04-18T07:23:34.416Z,38.99
2023-04-18T07:24:34.406Z,38.99
2023-04-18T07:25:34.396Z,39.09
2023-04-18T07:26:34.416Z,39.09
2023-04-18T07:27:34.357Z,38.99
2023-04-18T07:28:34.378Z,39.09
2023-04-18T07:29:34.367Z,39.09
2023-04-18T07:30:34.333Z,39.09
2023-04-18T07:31:34.374Z,39.09
2023-04-18T07:32:34.397Z,39.09
2023-04-18T07:33:34.298Z,39.09
2023-04-18T07:34:34.288Z,39.09
2023-04-18T07:35:34.285Z,39.09
2023-04-18T07:36:34.270Z,39.09
2023-04-18T07:37:34.260Z,39.09
2023-04-18T07:38:34.411Z,39.09
2023-04-18T07:39:34.236Z,39.09
2023-04-18T07:40:34.247Z,39.09
2023-04-18T07:41:34.215Z,39.09
2023-04-18T07:42:34.221Z,39.09
2023-04-18T07:43:34.201Z,39.09
2023-04-18T07:44:34.326Z,39.18
2023-04-18T07:45:34.187Z,39.18
2023-04-18T07:46:34.182Z,39.18
2023-04-18T07:47:34.209Z,39.18
2023-04-18T07:48:34.182Z,39.18
2023-04-18T07:49:34.178Z,39.18
2023-04-18T07:50:34.262Z,39.18
2023-04-18T07:51:34.129Z,39.18
2023-04-18T07:52:34.112Z,39.09
2023-04-18T07:53:34.097Z,39.18
2023-04-18T07:54:34.091Z,39.18
2023-04-18T07:55:34.077Z,39.18
2023-04-18T07:56:34.379Z,39.18
2023-04-18T07:57:34.050Z,39.18
2023-04-18T07:58:34.053Z,39.18
2023-04-18T07:59:41.188Z,39.18
2023-04-18T08:00:34.029Z,39.18
2023-04-18T08:01:34.014Z,39.18
2023-04-18T08:02:34.264Z,39.18
2023-04-18T08:03:34.095Z,39.18
2023-04-18T08:04:34.188Z,39.18
2023-04-18T08:05:34.065Z,39.18
2023-04-18T08:06:33.963Z,39.18
2023-04-18T08:07:33.950Z,39.18
2023-04-18T08:08:34.111Z,39.18
2023-04-18T08:09:33.967Z,39.18
2023-04-18T08:10:33.923Z,39.18
2023-04-18T08:11:33.911Z,39.18
2023-04-18T08:12:33.916Z,39.18
2023-04-18T08:13:33.891Z,39.29
2023-04-18T08:14:34.043Z,39.39
2023-04-18T08:15:33.878Z,39.39
2023-04-18T08:16:33.909Z,39.18
2023-04-18T08:17:33.889Z,39.18
2023-04-18T08:18:33.844Z,39.18
2023-04-18T08:19:33.829Z,39.29
2023-04-18T08:20:33.980Z,39.29
2023-04-18T08:21:33.804Z,39.29
2023-04-18T08:22:33.802Z,39.29
2023-04-18T08:23:33.812Z,39.39
2023-04-18T08:24:33.811Z,39.29
2023-04-18T08:25:33.771Z,39.29
2023-04-18T08:26:33.829Z,39.39
2023-04-18T08:27:33.753Z,39.39
2023-04-18T08:28:33.734Z,39.39
2023-04-18T08:29:33.730Z,39.39
2023-04-18T08:30:33.717Z,39.39
2023-04-18T08:31:33.755Z,39.39
2023-04-18T08:32:33.858Z,39.39
2023-04-18T08:33:33.690Z,39.49
2023-04-18T08:34:33.684Z,39.49
2023-04-18T08:35:33.679Z,39.49
2023-04-18T08:36:33.664Z,39.39
2023-04-18T08:37:33.643Z,39.39
2023-04-18T08:38:33.800Z,39.39
2023-04-18T08:39:33.625Z,39.39
2023-04-18T08:40:33.622Z,39.39
2023-04-18T08:41:33.597Z,39.49
2023-04-18T08:42:33.601Z,39.39
2023-04-18T08:43:33.587Z,39.49
2023-04-18T08:44:33.729Z,39.49
2023-04-18T08:45:33.650Z,39.49
2023-04-18T08:46:33.557Z,39.49
2023-04-18T08:47:33.572Z,39.49
2023-04-18T08:48:33.526Z,39.49
2023-04-18T08:49:33.519Z,39.49
2023-04-18T08:50:33.556Z,39.49
2023-04-18T08:51:33.492Z,39.49
2023-04-18T08:52:33.483Z,39.49
2023-04-18T08:53:33.484Z,39.49
2023-04-18T08:54:33.472Z,39.49
2023-04-18T08:55:33.473Z,39.49
2023-04-18T08:56:33.605Z,39.49
2023-04-18T08:57:33.425Z,39.49
2023-04-18T08:58:33.429Z,39.49
2023-04-18T08:59:40.898Z,39.49
2023-04-18T09:00:33.399Z,39.49
2023-04-18T09:01:33.406Z,39.49
2023-04-18T09:02:33.794Z,39.49
2023-04-18T09:03:33.400Z,39.49
2023-04-18T09:04:33.423Z,39.49
2023-04-18T09:05:33.345Z,39.49
2023-04-18T09:06:33.344Z,39.49
2023-04-18T09:07:33.317Z,39.49
2023-04-18T09:08:33.458Z,39.49
2023-04-18T09:09:33.316Z,39.49
2023-04-18T09:10:33.364Z,39.49
2023-04-18T09:11:33.288Z,39.49
2023-04-18T09:12:33.284Z,39.59
2023-04-18T09:13:33.264Z,39.59
2023-04-18T09:14:33.410Z,39.59
2023-04-18T09:15:33.246Z,39.59
2023-04-18T09:16:33.311Z,39.59
2023-04-18T09:17:33.247Z,39.49
2023-04-18T09:18:33.220Z,39.49
2023-04-18T09:19:33.209Z,39.49
2023-04-18T09:20:33.332Z,39.49
2023-04-18T09:21:33.179Z,39.49
2023-04-18T09:22:33.171Z,39.39
2023-04-18T09:23:33.168Z,39.39
2023-04-18T09:24:33.158Z,39.49
2023-04-18T09:25:33.143Z,39.49
2023-04-18T09:26:33.299Z,39.49
2023-04-18T09:27:33.124Z,39.49
2023-04-18T09:28:33.232Z,39.49
2023-04-18T09:29:33.104Z,39.39
2023-04-18T09:30:33.155Z,39.49
2023-04-18T09:31:33.202Z,39.49
2023-04-18T09:32:33.290Z,39.49
2023-04-18T09:33:33.084Z,39.49
2023-04-18T09:34:33.061Z,39.49
2023-04-18T09:35:33.042Z,39.49
2023-04-18T09:36:33.086Z,39.49
2023-04-18T09:37:33.029Z,39.39
2023-04-18T09:38:33.074Z,39.49
2023-04-18T09:39:33.013Z,39.49
2023-04-18T09:40:33.023Z,39.49
2023-04-18T09:41:33.002Z,39.39
2023-04-18T09:42:32.976Z,39.39
2023-04-18T09:43:32.983Z,39.49
2023-04-18T09:44:32.989Z,39.49
2023-04-18T09:45:32.954Z,39.49
2023-04-18T09:46:32.951Z,39.49
2023-04-18T09:47:32.972Z,39.49
2023-04-18T09:48:32.916Z,39.49
2023-04-18T09:49:32.893Z,39.49
2023-04-18T09:50:32.947Z,39.49
2023-04-18T09:51:32.879Z,39.49
2023-04-18T09:52:32.873Z,39.49
2023-04-18T09:53:32.866Z,39.49
2023-04-18T09:54:32.857Z,39.49
2023-04-18T09:55:32.854Z,39.39
2023-04-18T09:56:32.981Z,39.39
2023-04-18T09:57:32.828Z,39.49
2023-04-18T09:58:32.805Z,39.49
2023-04-18T09:59:40.235Z,39.49
2023-04-18T10:00:32.785Z,39.49
2023-04-18T10:01:32.831Z,39.39
2023-04-18T10:02:33.099Z,39.49
2023-04-18T10:03:32.852Z,39.39
2023-04-18T10:04:32.847Z,39.39
2023-04-18T10:05:32.751Z,39.49
2023-04-18T10:06:32.725Z,39.49
2023-04-18T10:07:32.705Z,39.39
2023-04-18T10:08:32.958Z,39.49
2023-04-18T10:09:32.689Z,39.49
2023-04-18T10:10:32.708Z,39.39
2023-04-18T10:11:32.668Z,39.39
2023-04-18T10:12:32.657Z,39.39
2023-04-18T10:13:32.649Z,39.49
2023-04-18T10:14:32.788Z,39.49
2023-04-18T10:15:32.637Z,39.49
2023-04-18T10:16:34.842Z,39.49
2023-04-18T10:17:32.644Z,39.49
2023-04-18T10:18:32.636Z,39.39
2023-04-18T10:19:32.593Z,39.49
2023-04-18T10:20:32.716Z,39.49
2023-04-18T10:21:32.577Z,39.49
2023-04-18T10:22:32.549Z,39.49
2023-04-18T10:23:32.544Z,39.49
2023-04-18T10:24:32.534Z,39.49
2023-04-18T10:25:32.519Z,39.49
2023-04-18T10:26:32.670Z,39.49
2023-04-18T10:27:32.504Z,39.49
2023-04-18T10:28:32.486Z,39.49
2023-04-18T10:29:32.487Z,39.49
2023-04-18T10:30:32.462Z,39.49
2023-04-18T10:31:32.481Z,39.49
2023-04-18T10:32:32.508Z,39.49
2023-04-18T10:33:33.354Z,39.49
2023-04-18T10:34:32.424Z,39.49
2023-04-18T10:35:32.423Z,39.49
2023-04-18T10:36:32.430Z,39.49
2023-04-18T10:37:32.398Z,39.39
2023-04-18T10:38:32.564Z,39.49
2023-04-18T10:39:32.386Z,39.49
2023-04-18T10:40:32.375Z,39.49
2023-04-18T10:41:32.360Z,39.49
2023-04-18T10:42:32.344Z,39.49
2023-04-18T10:43:32.335Z,39.59
2023-04-18T10:44:36.330Z,39.59
2023-04-18T10:45:32.349Z,39.59
2023-04-18T10:46:33.048Z,39.59
2023-04-18T10:47:32.521Z,39.59
2023-04-18T10:48:32.301Z,39.49
2023-04-18T10:49:32.987Z,39.49
2023-04-18T10:50:32.411Z,39.47
2023-04-18T10:51:32.257Z,39.47
2023-04-18T10:52:32.248Z,39.59
2023-04-18T10:53:32.239Z,39.59
2023-04-18T10:54:32.229Z,39.57
2023-04-18T10:55:32.212Z,39.59
2023-04-18T10:56:32.355Z,39.59
2023-04-18T10:57:32.197Z,39.69
2023-04-18T10:58:32.177Z,39.59
2023-04-18T10:59:39.266Z,39.59
2023-04-18T11:00:32.202Z,39.57
2023-04-18T11:01:33.047Z,39.57
2023-04-18T11:02:32.429Z,39.57
2023-04-18T11:03:32.224Z,39.57
2023-04-18T11:04:32.223Z,39.57
2023-04-18T11:05:32.107Z,39.57
2023-04-18T11:06:32.094Z,39.57
2023-04-18T11:07:32.089Z,39.59
2023-04-18T11:08:32.369Z,39.57
2023-04-18T11:09:32.081Z,39.59
2023-04-18T11:10:32.065Z,39.57
2023-04-18T11:11:32.050Z,39.59
2023-04-18T11:12:32.038Z,39.57
2023-04-18T11:13:32.030Z,39.57
2023-04-18T11:14:32.150Z,39.59
2023-04-18T11:15:32.021Z,39.59
2023-04-18T11:16:32.009Z,39.59
2023-04-18T11:17:32.013Z,39.59
2023-04-18T11:18:31.974Z,39.57
2023-04-18T11:19:31.992Z,39.57
2023-04-18T11:20:32.107Z,39.57
2023-04-18T11:21:31.970Z,39.57
2023-04-18T11:22:31.932Z,39.57
2023-04-18T11:23:31.957Z,39.59
2023-04-18T11:24:31.921Z,39.49
2023-04-18T11:25:32.113Z,39.59
2023-04-18T11:26:32.361Z,39.59
2023-04-18T11:27:31.893Z,39.47
2023-04-18T11:28:31.899Z,39.49
2023-04-18T11:29:31.862Z,39.49
2023-04-18T11:30:31.847Z,39.49
2023-04-18T11:31:31.916Z,39.49
2023-04-18T11:32:31.947Z,39.49
2023-04-18T11:33:31.822Z,39.49
2023-04-18T11:34:31.813Z,39.39
2023-04-18T11:35:31.801Z,39.39
2023-04-18T11:36:31.789Z,39.39
2023-04-18T11:37:32.265Z,39.39
2023-04-18T11:38:31.939Z,39.39
2023-04-18T11:39:31.768Z,39.39
2023-04-18T11:40:31.749Z,39.39
2023-04-18T11:41:31.739Z,39.39
2023-04-18T11:42:31.717Z,39.39
2023-04-18T11:43:31.716Z,39.39
2023-04-18T11:44:32.706Z,39.59
2023-04-18T11:45:31.695Z,39.59
2023-04-18T11:46:31.763Z,39.49
2023-04-18T11:47:31.736Z,39.59
2023-04-18T11:48:31.661Z,39.69
2023-04-18T11:49:31.663Z,39.59
2023-04-18T11:50:31.768Z,39.59
2023-04-18T11:51:31.630Z,39.59
2023-04-18T11:52:31.637Z,39.59
2023-04-18T11:53:31.610Z,39.59
2023-04-18T11:54:31.599Z,39.69
2023-04-18T11:55:31.617Z,39.79
2023-04-18T11:56:32.290Z,39.79
2023-04-18T11:57:31.572Z,39.69
2023-04-18T11:58:31.556Z,39.79
2023-04-18T12:00:24.440Z,39.89
2023-04-18T12:01:25.394Z,39.89
2023-04-18T12:02:25.502Z,39.89
2023-04-18T12:03:25.624Z,39.89
2023-04-18T12:04:25.622Z,39.99
2023-04-18T12:05:25.541Z,39.89
2023-04-18T12:06:25.413Z,39.89
2023-04-18T12:07:25.301Z,39.89
2023-04-18T12:08:25.458Z,39.89
2023-04-18T12:09:25.295Z,39.89
2023-04-18T12:10:25.271Z,39.89
2023-04-18T12:11:25.282Z,39.89
2023-04-18T12:12:25.237Z,39.99
2023-04-18T12:13:25.239Z,39.99
2023-04-18T12:14:25.536Z,39.99
2023-04-18T12:15:25.230Z,39.99
2023-04-18T12:16:25.255Z,39.89
2023-04-18T12:17:25.257Z,39.99
2023-04-18T12:18:25.186Z,39.99
2023-04-18T12:19:25.174Z,39.99
2023-04-18T12:20:25.189Z,39.99
2023-04-18T12:21:25.175Z,39.99
2023-04-18T12:22:25.153Z,40.09
2023-04-18T12:23:25.139Z,40.09
2023-04-18T12:24:25.200Z,40.19
2023-04-18T12:25:27.433Z,39.99
2023-04-18T12:26:25.266Z,40.09
2023-04-18T12:27:25.093Z,40.19
2023-04-18T12:28:25.082Z,40.19
2023-04-18T12:29:25.099Z,40.19
2023-04-18T12:30:25.058Z,40.19
2023-04-18T12:31:25.082Z,40.09
2023-04-18T12:32:25.147Z,40.19
2023-04-18T12:33:25.068Z,40.19
2023-04-18T12:34:25.061Z,40.19
2023-04-18T12:35:25.138Z,40.19
2023-04-18T12:36:25.040Z,40.19
2023-04-18T12:37:24.983Z,40.19
2023-04-18T12:38:25.051Z,40.09
2023-04-18T12:39:24.968Z,40.09
2023-04-18T12:40:24.978Z,40.09
2023-04-18T12:41:24.955Z,40.09
2023-04-18T12:42:24.932Z,40.09
2023-04-18T12:43:24.927Z,40.09
2023-04-18T12:44:25.052Z,40.09
2023-04-18T12:45:24.908Z,40.09
2023-04-18T12:46:24.949Z,40.09
2023-04-18T12:47:24.914Z,40.09
2023-04-18T12:48:24.882Z,40.09
2023-04-18T12:49:24.864Z,40.09
2023-04-18T12:50:24.985Z,40.09
2023-04-18T12:51:24.850Z,40.09
2023-04-18T12:52:24.850Z,40.09
2023-04-18T12:53:24.825Z,40.19
2023-04-18T12:54:24.818Z,40.19